createdAt,value
2022-11-19T00:02:03.453Z,79.52
2022-11-19T00:04:30.410Z,79.79
2022-11-19T00:06:57.417Z,79.47
2022-11-19T00:09:26.854Z,79.55
2022-11-19T00:12:12.205Z,79.95
2022-11-19T00:14:43.668Z,80.35
2022-11-19T00:17:10.600Z,79.94
2022-11-19T00:19:37.501Z,79.30
2022-11-19T00:22:04.462Z,79.41
2022-11-19T00:24:31.458Z,79.12
2022-11-19T00:26:58.355Z,78.82
2022-11-19T00:29:25.325Z,78.79
2022-11-19T00:31:52.286Z,78.89
2022-11-19T00:34:19.277Z,79.68
2022-11-19T00:36:48.882Z,79.83
2022-11-19T00:39:18.637Z,79.20
2022-11-19T00:41:48.347Z,79.18
2022-11-19T00:44:15.238Z,79.53
2022-11-19T00:46:42.061Z,80.01
2022-11-19T00:49:11.578Z,79.97
2022-11-19T00:51:38.543Z,79.29
2022-11-19T00:54:05.668Z,79.26
2022-11-19T00:56:34.861Z,79.12
2022-11-19T00:59:01.767Z,79.53
2022-11-19T01:01:31.147Z,79.38
2022-11-19T01:03:58.100Z,80.35
2022-11-19T01:06:26.396Z,80.00
2022-11-19T01:08:54.471Z,80.77
2022-11-19T01:11:25.810Z,80.08
2022-11-19T01:13:53.200Z,80.73
2022-11-19T01:16:35.255Z,80.02
2022-11-19T01:19:03.193Z,80.21
2022-11-19T01:21:35.387Z,80.07
2022-11-19T01:24:04.177Z,79.35
2022-11-19T01:26:34.149Z,78.97
2022-11-19T01:29:01.738Z,79.89
2022-11-19T01:31:32.671Z,81.12
2022-11-19T01:34:04.204Z,80.65
2022-11-19T01:36:31.441Z,80.31
2022-11-19T01:39:00.790Z,79.83
2022-11-19T01:41:31.734Z,79.99
2022-11-19T01:44:06.461Z,79.33
2022-11-19T01:46:38.831Z,80.05
2022-11-19T01:49:16.127Z,79.81
2022-11-19T01:51:53.881Z,79.74
2022-11-19T01:54:28.426Z,79.29
2022-11-19T01:57:05.975Z,79.30
2022-11-19T01:59:33.445Z,79.38
2022-11-19T02:02:00.534Z,79.13
2022-11-19T02:04:31.136Z,79.41
2022-11-19T02:06:58.308Z,80.56
2022-11-19T02:09:30.585Z,80.49
2022-11-19T02:12:36.908Z,79.60
2022-11-19T02:15:30.072Z,80.10
2022-11-19T02:18:33.821Z,79.76
2022-11-19T02:21:32.771Z,79.95
2022-11-19T02:25:04.831Z,79.81
2022-11-19T02:28:09.739Z,79.51
2022-11-19T02:30:42.580Z,80.48
2022-11-19T02:33:26.177Z,79.72
2022-11-19T02:36:30.828Z,79.38
2022-11-19T02:39:23.680Z,80.25
2022-11-19T02:42:09.628Z,80.71
2022-11-19T02:44:59.767Z,80.65
2022-11-19T02:47:40.923Z,80.26
2022-11-19T02:50:22.119Z,80.93
2022-11-19T02:52:49.690Z,80.66
2022-11-19T02:55:21.712Z,79.69
2022-11-19T02:58:38.302Z,81.42
2022-11-19T03:01:26.568Z,80.27
2022-11-19T03:04:15.819Z,80.31
2022-11-19T03:06:42.709Z,80.32
2022-11-19T03:09:09.871Z,79.94
2022-11-19T03:11:36.896Z,80.21
2022-11-19T03:14:45.743Z,80.67
2022-11-19T03:17:15.383Z,81.11
2022-11-19T03:20:01.048Z,80.77
2022-11-19T03:22:33.910Z,79.98
2022-11-19T03:25:09.953Z,79.53
2022-11-19T03:27:48.697Z,80.46
2022-11-19T03:30:18.865Z,79.92
2022-11-19T03:32:57.019Z,79.71
2022-11-19T03:35:43.725Z,79.77
2022-11-19T03:38:18.364Z,79.19
2022-11-19T03:40:49.089Z,79.77
2022-11-19T03:43:21.183Z,79.95
2022-11-19T03:45:51.607Z,80.31
2022-11-19T03:48:22.418Z,79.25
2022-11-19T03:50:58.492Z,79.61
2022-11-19T03:53:26.145Z,79.69
2022-11-19T03:56:09.691Z,79.49
2022-11-19T03:58:43.073Z,79.81
2022-11-19T04:01:13.300Z,80.19
2022-11-19T04:04:02.383Z,80.31
2022-11-19T04:06:29.260Z,79.82
2022-11-19T04:08:56.105Z,78.75
2022-11-19T04:13:50.948Z,79.26
2022-11-19T04:16:20.876Z,79.69
2022-11-19T04:18:47.744Z,79.70
2022-11-19T04:21:14.625Z,79.06
2022-11-19T04:23:41.472Z,78.60
2022-11-19T04:26:08.333Z,78.91
2022-11-19T04:28:35.385Z,78.64
2022-11-19T04:31:04.627Z,78.89
2022-11-19T04:33:33.614Z,78.99
2022-11-19T04:36:02.562Z,78.60
2022-11-19T04:38:34.785Z,78.56
2022-11-19T04:41:01.688Z,78.42
2022-11-19T04:43:28.571Z,78.74
2022-11-19T04:45:55.463Z,78.51
2022-11-19T04:48:25.398Z,78.21
2022-11-19T04:50:52.273Z,78.68
2022-11-19T04:53:19.143Z,78.27
2022-11-19T04:55:46.138Z,78.41
2022-11-19T04:58:15.626Z,78.38
2022-11-19T05:00:42.575Z,78.33
2022-11-19T05:03:11.655Z,78.77
2022-11-19T05:05:38.703Z,78.48
2022-11-19T05:08:06.480Z,79.05
2022-11-19T05:10:35.877Z,77.90
2022-11-19T05:13:05.798Z,78.77
2022-11-19T05:15:34.793Z,78.53
2022-11-19T05:18:04.204Z,78.16
2022-11-19T05:20:31.364Z,78.90
2022-11-19T05:22:58.297Z,78.63
2022-11-19T05:25:25.328Z,78.13
2022-11-19T05:27:52.693Z,78.13
2022-11-19T05:30:21.906Z,77.97
2022-11-19T05:32:48.938Z,77.70
2022-11-19T05:35:15.885Z,78.63
2022-11-19T05:37:49.580Z,78.07
2022-11-19T05:40:19.594Z,77.84
2022-11-19T05:42:46.468Z,77.95
2022-11-19T05:45:16.178Z,78.45
2022-11-19T05:47:47.404Z,78.55
2022-11-19T05:50:15.657Z,78.92
2022-11-19T05:52:42.505Z,78.11
2022-11-19T05:55:11.708Z,77.97
2022-11-19T05:57:41.599Z,78.68
2022-11-19T06:00:10.308Z,78.30
2022-11-19T06:02:37.278Z,78.36
2022-11-19T06:05:05.174Z,79.41
2022-11-19T06:07:32.068Z,78.47
2022-11-19T06:10:01.178Z,79.00
2022-11-19T06:12:28.007Z,78.05
2022-11-19T06:14:57.482Z,77.09
2022-11-19T06:17:24.301Z,77.92
2022-11-19T06:19:53.361Z,79.16
2022-11-19T06:22:20.264Z,78.29
2022-11-19T06:24:47.133Z,78.58
2022-11-19T06:27:16.941Z,78.41
2022-11-19T06:29:52.261Z,78.70
2022-11-19T06:32:23.496Z,79.48
2022-11-19T06:34:50.401Z,78.60
2022-11-19T06:37:19.373Z,79.09
2022-11-19T06:39:46.257Z,78.63
2022-11-19T06:42:38.518Z,78.28
2022-11-19T06:45:12.903Z,77.72
2022-11-19T06:47:42.889Z,78.73
2022-11-19T06:50:14.387Z,78.01
2022-11-19T06:52:44.232Z,78.49
2022-11-19T06:55:11.177Z,77.46
2022-11-19T06:57:38.014Z,77.31
2022-11-19T07:00:06.664Z,76.97
2022-11-19T07:02:35.648Z,76.92
2022-11-19T07:05:05.995Z,76.73
2022-11-19T07:07:34.807Z,77.38
2022-11-19T07:10:07.254Z,77.30
2022-11-19T07:12:36.670Z,76.47
2022-11-19T07:15:06.404Z,77.73
2022-11-19T07:17:35.828Z,77.51
2022-11-19T07:20:02.785Z,77.80
2022-11-19T07:22:29.723Z,74.71
2022-11-19T07:24:56.668Z,70.06
2022-11-19T07:27:23.849Z,68.34
2022-11-19T07:29:50.730Z,64.64
2022-11-19T07:32:22.121Z,61.78
2022-11-19T07:34:48.987Z,59.16
2022-11-19T07:37:18.645Z,54.92
2022-11-19T07:39:46.930Z,51.96
2022-11-19T07:42:32.653Z,53.29
2022-11-19T07:44:59.504Z,49.08
2022-11-19T07:47:26.403Z,47.25
2022-11-19T07:49:55.941Z,44.93
2022-11-19T07:52:22.891Z,43.14
2022-11-19T07:54:49.744Z,41.63
2022-11-19T07:57:19.178Z,42.18
2022-11-19T07:59:48.158Z,42.19
2022-11-19T08:02:17.559Z,41.37
2022-11-19T08:04:44.494Z,42.13
2022-11-19T08:07:11.749Z,41.79
2022-11-19T08:09:38.978Z,39.08
2022-11-19T08:12:06.276Z,37.16
2022-11-19T08:14:33.379Z,36.02
2022-11-19T08:17:18.580Z,35.13
2022-11-19T08:19:47.720Z,34.93
2022-11-19T08:22:17.101Z,33.29
2022-11-19T08:24:44.824Z,33.10
2022-11-19T08:27:13.001Z,33.35
2022-11-19T08:29:39.939Z,33.89
2022-11-19T08:32:06.875Z,33.30
2022-11-19T08:34:36.799Z,32.08
2022-11-19T08:37:06.301Z,34.48
2022-11-19T08:39:35.396Z,33.97
2022-11-19T08:42:23.157Z,31.71
2022-11-19T08:44:50.004Z,31.61
2022-11-19T08:47:17.330Z,31.01
2022-11-19T08:49:44.271Z,31.02
2022-11-19T08:52:11.220Z,30.25
2022-11-19T08:54:38.097Z,31.14
2022-11-19T08:57:07.491Z,31.02
2022-11-19T08:59:36.467Z,30.72
2022-11-19T09:02:03.382Z,30.85
2022-11-19T09:04:30.290Z,33.04
2022-11-19T09:06:57.893Z,34.93
2022-11-19T09:09:24.805Z,38.34
2022-11-19T09:11:56.816Z,40.46
2022-11-19T09:14:23.989Z,37.15
2022-11-19T09:16:50.973Z,34.04
2022-11-19T09:19:17.961Z,32.85
2022-11-19T09:21:48.389Z,32.42
2022-11-19T09:24:15.319Z,32.20
2022-11-19T09:26:50.235Z,34.95
2022-11-19T09:29:19.767Z,37.89
2022-11-19T09:31:46.698Z,40.92
2022-11-19T09:34:13.641Z,42.38
2022-11-19T09:36:40.544Z,44.55
2022-11-19T09:39:07.449Z,45.91
2022-11-19T09:41:56.885Z,48.01
2022-11-19T09:44:55.519Z,49.16
2022-11-19T09:47:56.010Z,51.37
2022-11-19T09:50:33.414Z,52.70
2022-11-19T09:53:22.895Z,53.50
2022-11-19T09:55:53.041Z,54.20
2022-11-19T09:58:34.995Z,54.73
2022-11-19T10:01:04.907Z,53.28
2022-11-19T10:03:33.951Z,51.71
2022-11-19T10:06:16.140Z,50.86
2022-11-19T10:09:02.968Z,49.90
2022-11-19T10:12:25.565Z,42.26
2022-11-19T10:15:09.166Z,35.86
2022-11-19T10:17:45.238Z,33.67
2022-11-19T10:20:55.302Z,31.15
2022-11-19T10:23:56.019Z,32.70
2022-11-19T10:26:43.544Z,37.79
2022-11-19T10:29:21.300Z,41.02
2022-11-19T10:31:52.145Z,43.01
2022-11-19T10:34:29.777Z,42.41
2022-11-19T10:37:15.137Z,35.21
2022-11-19T10:39:51.458Z,30.85
2022-11-19T10:42:33.674Z,28.94
2022-11-19T10:45:27.675Z,27.90
2022-11-19T10:48:17.407Z,27.75
2022-11-19T10:50:46.846Z,26.73
2022-11-19T10:53:25.660Z,26.10
2022-11-19T10:56:14.509Z,25.41
2022-11-19T10:58:50.508Z,25.36
2022-11-19T11:01:32.301Z,23.49
2022-11-19T11:04:15.674Z,24.30
2022-11-19T11:07:03.090Z,23.90
2022-11-19T11:09:41.204Z,25.72
2022-11-19T11:12:41.980Z,25.27
2022-11-19T11:15:27.674Z,26.22
2022-11-19T11:18:07.142Z,25.28
2022-11-19T11:20:37.618Z,26.30
2022-11-19T11:23:10.628Z,26.66
2022-11-19T11:25:40.210Z,27.34
2022-11-19T11:28:20.453Z,26.51
2022-11-19T11:31:05.346Z,25.19
2022-11-19T11:33:39.098Z,26.85
2022-11-19T11:36:20.010Z,26.65
2022-11-19T11:38:50.633Z,27.29
2022-11-19T11:44:15.316Z,28.36
2022-11-19T11:46:50.392Z,28.11
2022-11-19T11:49:36.467Z,29.00
2022-11-19T11:52:13.548Z,30.36
2022-11-19T11:55:06.501Z,31.80
2022-11-19T11:57:50.988Z,32.58
2022-11-19T12:00:46.040Z,32.43
2022-11-19T12:03:18.799Z,33.34
2022-11-19T12:05:56.867Z,33.46
2022-11-19T12:08:54.752Z,33.64
2022-11-19T12:12:00.053Z,33.66
2022-11-19T12:15:12.958Z,32.62
2022-11-19T12:17:51.030Z,32.02
2022-11-19T12:20:28.133Z,31.32
2022-11-19T12:23:15.986Z,30.56
2022-11-19T12:26:12.693Z,30.98
2022-11-19T12:28:57.664Z,30.93
2022-11-19T12:31:39.517Z,32.17
2022-11-19T12:34:34.806Z,32.04
2022-11-19T12:37:36.226Z,31.35
2022-11-19T12:40:39.406Z,30.18
2022-11-19T12:43:36.838Z,29.63
2022-11-19T12:46:21.442Z,29.49
2022-11-19T12:49:05.760Z,30.20
2022-11-19T12:52:35.519Z,29.74
2022-11-19T12:55:25.358Z,28.79
2022-11-19T12:58:25.604Z,27.58
2022-11-19T13:01:14.390Z,25.91
2022-11-19T13:04:09.134Z,24.79
2022-11-19T13:07:47.095Z,24.52
2022-11-19T13:10:39.459Z,25.23
2022-11-19T13:13:14.357Z,24.84
2022-11-19T13:16:00.488Z,24.20
2022-11-19T13:18:33.466Z,24.77
2022-11-19T13:21:05.149Z,26.65
2022-11-19T13:23:39.063Z,28.14
2022-11-19T13:26:25.047Z,29.21
2022-11-19T13:28:58.478Z,31.77
2022-11-19T13:31:56.626Z,32.81
2022-11-19T13:34:40.360Z,32.01
2022-11-19T13:37:27.477Z,31.01
2022-11-19T13:40:08.365Z,31.44
2022-11-19T13:43:25.081Z,32.08
2022-11-19T13:45:47.562Z,31.96
2022-11-19T13:48:33.541Z,33.55
2022-11-19T13:51:04.945Z,34.48
2022-11-19T13:53:40.281Z,33.92
2022-11-19T13:56:15.378Z,32.22
2022-11-19T13:58:53.284Z,31.08
2022-11-19T14:01:23.195Z,29.92
2022-11-19T14:04:13.200Z,29.82
2022-11-19T14:07:30.701Z,30.39
2022-11-19T14:10:24.135Z,29.44
2022-11-19T14:13:25.406Z,28.99
2022-11-19T14:16:26.998Z,29.97
2022-11-19T14:19:18.888Z,30.58
2022-11-19T14:22:11.208Z,32.25
2022-11-19T14:24:56.283Z,35.51
2022-11-19T14:27:29.301Z,38.08
2022-11-19T14:29:57.744Z,40.71
2022-11-19T14:32:47.808Z,42.01
2022-11-19T14:35:29.045Z,44.75
2022-11-19T14:38:36.777Z,45.18
2022-11-19T14:41:17.290Z,46.76
2022-11-19T14:44:36.991Z,46.96
2022-11-19T14:47:22.439Z,48.57
2022-11-19T14:49:56.499Z,50.44
2022-11-19T14:52:28.932Z,50.43
2022-11-19T14:55:04.455Z,51.84
2022-11-19T14:57:41.034Z,51.02
2022-11-19T15:00:14.183Z,51.65
2022-11-19T15:02:46.141Z,53.47
2022-11-19T15:05:12.939Z,53.38
2022-11-19T15:07:52.904Z,53.43
2022-11-19T15:10:48.486Z,54.42
2022-11-19T15:13:30.252Z,55.25
2022-11-19T15:16:26.036Z,55.18
2022-11-19T15:19:36.382Z,54.72
2022-11-19T15:22:25.009Z,55.55
2022-11-19T15:25:03.710Z,56.98
2022-11-19T15:27:59.618Z,57.69
2022-11-19T15:31:29.699Z,58.52
2022-11-19T15:34:49.147Z,57.56
2022-11-19T15:37:41.847Z,58.88
2022-11-19T15:40:19.345Z,59.20
2022-11-19T15:43:22.520Z,60.21
2022-11-19T15:46:01.132Z,60.48
2022-11-19T15:49:06.697Z,60.72
2022-11-19T15:52:03.433Z,60.84
2022-11-19T15:54:35.199Z,62.89
2022-11-19T15:57:25.524Z,62.65
2022-11-19T15:59:59.752Z,61.44
2022-11-19T16:02:37.415Z,61.98
2022-11-19T16:05:06.340Z,63.48
2022-11-19T16:07:33.747Z,62.94
2022-11-19T16:10:01.442Z,63.39
2022-11-19T16:12:47.312Z,63.88
2022-11-19T16:16:10.180Z,63.98
2022-11-19T16:18:51.633Z,65.15
2022-11-19T16:21:28.006Z,64.76
2022-11-19T16:24:14.440Z,64.90
2022-11-19T16:26:47.702Z,64.50
2022-11-19T16:29:26.142Z,63.97
2022-11-19T16:31:57.084Z,65.27
2022-11-19T16:34:34.445Z,64.74
2022-11-19T16:37:01.624Z,64.39
2022-11-19T16:39:33.890Z,64.53
2022-11-19T16:42:17.201Z,65.39
2022-11-19T16:45:04.316Z,65.89
2022-11-19T16:47:41.340Z,67.77
2022-11-19T16:50:36.309Z,67.92
2022-11-19T16:53:10.938Z,67.42
2022-11-19T16:55:42.917Z,67.26
2022-11-19T16:58:23.024Z,67.98
2022-11-19T17:00:55.225Z,67.59
2022-11-19T17:03:23.203Z,67.30
2022-11-19T17:05:54.492Z,67.72
2022-11-19T17:08:26.035Z,68.01
2022-11-19T17:11:56.707Z,67.77
2022-11-19T17:14:31.316Z,67.23
2022-11-19T17:17:00.957Z,67.93
2022-11-19T17:19:37.545Z,67.92
2022-11-19T17:22:18.040Z,68.97
2022-11-19T17:24:48.724Z,68.89
2022-11-19T17:27:36.771Z,68.89
2022-11-19T17:30:09.572Z,69.61
2022-11-19T17:32:51.280Z,69.13
2022-11-19T17:35:37.181Z,69.93
2022-11-19T17:38:21.165Z,70.60
2022-11-19T17:40:50.319Z,71.49
2022-11-19T17:43:43.222Z,71.66
2022-11-19T17:46:10.569Z,71.52
2022-11-19T17:48:41.398Z,71.55
2022-11-19T17:51:26.272Z,71.51
2022-11-19T17:53:55.609Z,71.40
2022-11-19T17:56:28.372Z,72.57
2022-11-19T17:58:56.162Z,72.42
2022-11-19T18:01:23.518Z,72.36
2022-11-19T18:03:50.517Z,72.46
2022-11-19T18:06:22.335Z,72.99
2022-11-19T18:08:49.245Z,73.21
2022-11-19T18:11:27.835Z,73.71
2022-11-19T18:13:57.880Z,73.67
2022-11-19T18:16:33.966Z,73.46
2022-11-19T18:19:16.665Z,73.05
2022-11-19T18:21:45.526Z,72.89
2022-11-19T18:24:15.103Z,72.19
2022-11-19T18:26:41.970Z,72.99
2022-11-19T18:29:09.030Z,72.47
2022-11-19T18:31:44.829Z,72.50
2022-11-19T18:34:22.817Z,71.87
2022-11-19T18:36:50.728Z,72.24
2022-11-19T18:39:20.699Z,73.43
2022-11-19T18:41:48.027Z,73.67
2022-11-19T18:44:38.931Z,73.23
2022-11-19T18:47:10.718Z,73.94
2022-11-19T18:49:41.165Z,74.34
2022-11-19T18:52:12.898Z,74.96
2022-11-19T18:54:40.163Z,74.98
2022-11-19T18:57:07.116Z,75.24
2022-11-19T18:59:34.328Z,75.39
2022-11-19T19:02:03.822Z,75.04
2022-11-19T19:04:31.772Z,75.13
2022-11-19T19:07:01.621Z,74.96
2022-11-19T19:09:28.952Z,75.72
2022-11-19T19:12:17.514Z,75.04
2022-11-19T19:14:47.526Z,74.62
2022-11-19T19:17:18.822Z,74.33
2022-11-19T19:19:46.538Z,74.25
2022-11-19T19:22:13.506Z,73.72
2022-11-19T19:24:43.432Z,74.48
2022-11-19T19:27:11.216Z,74.55
2022-11-19T19:29:39.648Z,74.42
2022-11-19T19:32:07.566Z,74.15
2022-11-19T19:34:36.672Z,74.44
2022-11-19T19:37:06.933Z,74.79
2022-11-19T19:39:36.255Z,74.71
2022-11-19T19:42:03.218Z,74.90
2022-11-19T19:44:32.472Z,74.87
2022-11-19T19:46:59.526Z,75.56
2022-11-19T19:49:26.675Z,75.86
2022-11-19T19:51:53.560Z,75.37
2022-11-19T19:54:20.576Z,74.82
2022-11-19T19:56:50.466Z,74.70
2022-11-19T19:59:22.046Z,75.25
2022-11-19T20:01:51.652Z,75.03
2022-11-19T20:04:18.565Z,75.24
2022-11-19T20:06:52.944Z,76.10
2022-11-19T20:09:22.285Z,76.09
2022-11-19T20:11:49.713Z,75.90
2022-11-19T20:14:16.616Z,76.58
2022-11-19T20:16:45.714Z,77.18
2022-11-19T20:19:16.860Z,76.53
2022-11-19T20:21:47.313Z,76.61
2022-11-19T20:24:14.536Z,76.82
2022-11-19T20:26:42.913Z,76.48
2022-11-19T20:29:14.836Z,76.40
2022-11-19T20:31:46.959Z,76.17
2022-11-19T20:34:15.006Z,76.02
2022-11-19T20:36:42.078Z,76.59
2022-11-19T20:39:14.570Z,76.68
2022-11-19T20:42:02.717Z,75.66
2022-11-19T20:44:32.661Z,76.33
2022-11-19T20:47:03.017Z,75.97
2022-11-19T20:49:35.880Z,76.24
2022-11-19T20:52:06.123Z,76.29
2022-11-19T20:54:33.672Z,77.26
2022-11-19T20:57:01.133Z,76.82
2022-11-19T20:59:28.796Z,76.27
2022-11-19T21:01:56.826Z,76.62
2022-11-19T21:04:27.335Z,75.88
2022-11-19T21:06:54.957Z,75.44
2022-11-19T21:09:22.237Z,76.51
2022-11-19T21:11:49.364Z,76.11
2022-11-19T21:14:18.571Z,76.07
2022-11-19T21:16:45.588Z,76.42
2022-11-19T21:19:12.793Z,75.97
2022-11-19T21:21:45.673Z,75.74
2022-11-19T21:24:13.075Z,75.43
2022-11-19T21:26:42.341Z,75.25
2022-11-19T21:29:14.367Z,75.18
2022-11-19T21:31:48.775Z,75.16
2022-11-19T21:34:23.066Z,74.30
2022-11-19T21:36:50.499Z,74.82
2022-11-19T21:39:20.244Z,75.70
2022-11-19T21:41:49.948Z,76.02
2022-11-19T21:44:21.756Z,75.36
2022-11-19T21:46:49.215Z,76.06
2022-11-19T21:49:16.208Z,75.57
2022-11-19T21:51:43.378Z,76.36
2022-11-19T21:54:10.344Z,76.26
2022-11-19T21:56:39.014Z,75.57
2022-11-19T21:59:08.868Z,75.48
2022-11-19T22:01:36.028Z,74.88
2022-11-19T22:04:03.273Z,75.40
2022-11-19T22:06:31.952Z,75.66
2022-11-19T22:08:59.034Z,76.47
2022-11-19T22:11:28.529Z,74.96
2022-11-19T22:13:58.888Z,75.62
2022-11-19T22:16:26.239Z,75.35
2022-11-19T22:18:55.583Z,76.54
2022-11-19T22:21:29.292Z,77.20
2022-11-19T22:23:57.133Z,76.86
2022-11-19T22:26:29.135Z,76.46
2022-11-19T22:28:59.055Z,76.30
2022-11-19T22:31:26.345Z,75.52
2022-11-19T22:33:54.079Z,75.74
2022-11-19T22:36:24.696Z,75.70
2022-11-19T22:38:52.250Z,75.33
2022-11-19T22:41:22.372Z,75.57
2022-11-19T22:43:50.353Z,75.82
2022-11-19T22:46:18.750Z,75.17
2022-11-19T22:48:45.664Z,75.89
2022-11-19T22:51:27.016Z,75.87
2022-11-19T22:53:54.432Z,74.94
2022-11-19T22:56:27.540Z,75.62
2022-11-19T22:58:55.474Z,76.31
2022-11-19T23:01:28.840Z,76.40
2022-11-19T23:04:01.821Z,77.16
2022-11-19T23:06:31.343Z,77.06
2022-11-19T23:09:01.501Z,77.61
2022-11-19T23:11:47.511Z,77.31
2022-11-19T23:14:18.746Z,76.82
2022-11-19T23:16:46.143Z,76.64
2022-11-19T23:19:19.183Z,75.92
2022-11-19T23:21:46.651Z,76.08
2022-11-19T23:24:13.553Z,76.93
2022-11-19T23:26:41.468Z,75.79
2022-11-19T23:29:09.100Z,75.79
2022-11-19T23:31:39.089Z,76.11
2022-11-19T23:34:06.410Z,75.94
2022-11-19T23:36:37.640Z,75.93
2022-11-19T23:39:06.207Z,76.53
2022-11-19T23:41:34.367Z,76.08
2022-11-19T23:44:04.042Z,76.68
2022-11-19T23:46:36.012Z,76.17
2022-11-19T23:49:03.811Z,75.73
2022-11-19T23:51:35.095Z,75.53
2022-11-19T23:54:05.042Z,75.03
2022-11-19T23:56:38.353Z,75.20
2022-11-19T23:59:06.372Z,74.86
